Time;durP1;ratioP1;P1;durP2;ratioP2;P2;SDS_P1;SDS_P2;PMS_P1;PMS_P2;Temp;Humidity;BMP_temperature;BMP_pressure;BME280_temperature;BME280_humidity;BME280_pressure;Samples;Min_cycle;Max_cycle;Signal;HPM_P1;HPM_P2
2022/09/17 00:01:40;;;;;;;;;;;;;;;12.93;41.48;100836.06;5045675;28;19928;-69
2022/09/17 00:04:10;;;;;;;;;;;;;;;12.92;41.41;100834.34;5048917;28;19920;-69
2022/09/17 00:06:37;;;;;;;;;;;;;;;12.93;41.68;100834.19;5046395;28;19979;-68
2022/09/17 00:09:05;;;;;;;;;;;;;;;12.94;41.32;100835.06;5045738;28;19927;-68
2022/09/17 00:11:35;;;;;;;;;;;;;;;12.93;41.75;100833.31;5043126;28;19921;-69
2022/09/17 00:14:03;;;;;;;;;;;;;;;12.93;41.78;100830.59;5046607;28;19944;-69
2022/09/17 00:16:34;;;;;;;;;;;;;;;12.92;41.47;100823.34;5049164;28;19921;-68
2022/09/17 00:19:02;;;;;;;;;;;;;;;12.91;41.61;100827.97;5045476;28;19920;-69
2022/09/17 00:21:31;;;;;;;;;;;;;;;12.91;41.71;100833.47;5042276;28;19921;-69
2022/09/17 00:24:00;;;;;;;;;;;;;;;12.91;41.60;100832.59;5045034;28;20031;-69
2022/09/17 00:26:28;;;;;;;;;;;;;;;12.91;41.78;100833.47;5040324;28;19924;-69
2022/09/17 00:28:56;;;;;;;;;;;;;;;12.91;41.89;100836.22;5048771;28;19928;-69
2022/09/17 00:31:25;;;;;;;;;;;;;;;12.90;41.61;100833.63;5043140;28;20376;-69
2022/09/17 00:33:54;;;;;;;;;;;;;;;12.91;41.61;100838.09;5042019;28;19967;-68
2022/09/17 00:36:22;;;;;;;;;;;;;;;12.90;41.82;100844.59;5047660;28;20438;-69
2022/09/17 00:38:50;;;;;;;;;;;;;;;12.90;41.81;100848.22;5060233;28;19925;-68
2022/09/17 00:41:18;;;;;;;;;;;;;;;12.90;42.13;100847.34;5043234;28;20486;-69
2022/09/17 00:43:47;;;;;;;;;;;;;;;12.90;41.76;100842.72;5043606;28;20480;-69
2022/09/17 00:46:25;;;;;;;;;;;;;;;12.89;41.89;100854.72;5041618;28;19920;-68
2022/09/17 00:48:55;;;;;;;;;;;;;;;12.88;41.79;100856.59;5044529;28;19925;-69
2022/09/17 00:51:27;;;;;;;;;;;;;;;12.89;42.13;100857.47;5047053;28;20288;-68
2022/09/17 00:53:55;;;;;;;;;;;;;;;12.89;42.15;100857.47;5049495;28;19935;-69
2022/09/17 00:56:25;;;;;;;;;;;;;;;12.89;41.94;100857.47;5045586;28;19924;-69
2022/09/17 00:58:53;;;;;;;;;;;;;;;12.88;42.38;100855.72;5044566;28;19932;-69
2022/09/17 01:01:21;;;;;;;;;;;;;;;12.88;42.25;100861.22;5046199;28;19927;-69
2022/09/17 01:03:49;;;;;;;;;;;;;;;12.90;42.22;100863.84;5049212;28;19920;-69
2022/09/17 01:06:22;;;;;;;;;;;;;;;12.87;42.63;100856.78;5050538;28;19925;-68
2022/09/17 01:08:57;;;;;;;;;;;;;;;12.87;42.08;100865.84;5050837;28;20419;-69
2022/09/17 01:11:30;;;;;;;;;;;;;;;12.87;42.28;100860.34;5041588;28;20403;-69
2022/09/17 01:14:05;;;;;;;;;;;;;;;12.87;42.54;100865.84;5047299;28;19959;-69
2022/09/17 01:16:37;;;;;;;;;;;;;;;12.86;42.09;100860.53;5049233;28;19920;-69
2022/09/17 01:19:12;;;;;;;;;;;;;;;12.86;42.49;100858.66;5053978;28;19921;-69
2022/09/17 01:21:50;;;;;;;;;;;;;;;12.86;42.07;100863.28;5041233;28;20385;-69
2022/09/17 01:24:39;;;;;;;;;;;;;;;12.84;42.12;100859.81;5068281;28;19924;-69
2022/09/17 01:27:20;;;;;;;;;;;;;;;12.83;42.54;100867.19;5060349;28;19935;-68
2022/09/17 01:29:56;;;;;;;;;;;;;;;12.84;42.52;100868.06;5068054;28;19956;-69
2022/09/17 01:32:29;;;;;;;;;;;;;;;12.85;42.22;100856.06;5068578;28;20320;-69
2022/09/17 01:35:01;;;;;;;;;;;;;;;12.84;42.24;100870.78;5070456;28;19975;-68
2022/09/17 01:37:31;;;;;;;;;;;;;;;12.83;42.76;100869.94;5067376;28;20400;-69
2022/09/17 01:40:02;;;;;;;;;;;;;;;12.84;42.31;100868.06;5066869;28;19920;-69
2022/09/17 01:42:35;;;;;;;;;;;;;;;12.83;42.38;100860.81;5058484;28;20329;-69
2022/09/17 01:45:05;;;;;;;;;;;;;;;12.83;42.39;100869.06;5060583;28;19928;-69
2022/09/17 01:47:37;;;;;;;;;;;;;;;12.83;42.31;100869.06;5084136;28;19974;-69
2022/09/17 01:50:08;;;;;;;;;;;;;;;12.82;42.37;100862.69;5073808;28;19928;-68
2022/09/17 01:52:39;;;;;;;;;;;;;;;12.83;42.28;100874.56;5068693;28;19978;-68
2022/09/17 01:55:08;;;;;;;;;;;;;;;12.84;42.67;100876.28;5068938;28;19982;-69
2022/09/17 01:57:38;;;;;;;;;;;;;;;12.82;42.62;100862.69;5070282;28;20053;-69
2022/09/17 02:00:08;;;;;;;;;;;;;;;12.83;42.57;100871.81;5068102;28;19951;-69
2022/09/17 02:02:42;;;;;;;;;;;;;;;12.83;42.56;100869.06;5068739;28;19927;-69
2022/09/17 02:05:14;;;;;;;;;;;;;;;12.81;42.65;100865.59;5068054;28;19924;-68
2022/09/17 02:07:45;;;;;;;;;;;;;;;12.81;42.55;100876.56;5068492;28;19921;-69
2022/09/17 02:10:14;;;;;;;;;;;;;;;12.82;42.64;100876.44;5071659;28;19928;-69
2022/09/17 02:12:45;;;;;;;;;;;;;;;12.80;42.65;100870.22;5060391;28;19920;-68
2022/09/17 02:15:16;;;;;;;;;;;;;;;12.79;42.27;100873.97;5067102;28;20408;-69
2022/09/17 02:17:48;;;;;;;;;;;;;;;12.79;42.69;100875.84;5064552;28;19920;-69
2022/09/17 02:20:16;;;;;;;;;;;;;;;12.77;42.80;100878.78;5071135;28;19980;-69
2022/09/17 02:22:52;;;;;;;;;;;;;;;12.77;42.84;100877.91;5067569;28;20015;-69
2022/09/17 02:25:22;;;;;;;;;;;;;;;12.75;42.69;100880.78;5068009;28;19928;-68
2022/09/17 02:27:52;;;;;;;;;;;;;;;12.74;42.69;100870.81;5069567;28;19921;-69
2022/09/17 02:30:20;;;;;;;;;;;;;;;12.73;42.58;100871.81;5061040;28;20380;-69
2022/09/17 02:32:49;;;;;;;;;;;;;;;12.72;42.90;100872.84;5060200;28;19925;-68
2022/09/17 02:35:18;;;;;;;;;;;;;;;12.72;42.89;100869.22;5082822;28;20497;-68
2022/09/17 02:37:45;;;;;;;;;;;;;;;12.71;42.70;100876.59;5068417;28;19921;-68
2022/09/17 02:40:15;;;;;;;;;;;;;;;12.69;42.69;100864.91;5068841;28;19924;-68
2022/09/17 02:42:52;;;;;;;;;;;;;;;12.69;42.85;100864.91;5072471;28;20019;-68
2022/09/17 02:45:26;;;;;;;;;;;;;;;12.68;42.57;100879.66;5079015;28;20014;-69
2022/09/17 02:48:06;;;;;;;;;;;;;;;12.68;42.88;100873.28;5065315;28;19920;-69
2022/09/17 02:50:43;;;;;;;;;;;;;;;12.67;42.78;100869.69;5067953;28;20292;-68
2022/09/17 02:53:19;;;;;;;;;;;;;;;12.67;42.93;100869.69;5075005;28;19927;-68
2022/09/17 02:55:51;;;;;;;;;;;;;;;12.67;43.05;100871.56;5067571;28;20003;-69
2022/09/17 02:58:23;;;;;;;;;;;;;;;12.67;43.08;100880.66;5064003;28;19943;-68
2022/09/17 03:00:54;;;;;;;;;;;;;;;12.66;42.88;100878.06;5069522;28;19959;-69
2022/09/17 03:03:26;;;;;;;;;;;;;;;12.66;42.81;100889.91;5074950;28;19943;-69
2022/09/17 03:05:55;;;;;;;;;;;;;;;12.65;42.77;100879.94;5066092;28;19928;-68
2022/09/17 03:08:28;;;;;;;;;;;;;;;12.63;42.78;100870.97;5068065;28;20400;-69
2022/09/17 03:10:56;;;;;;;;;;;;;;;12.64;42.74;100888.31;5069691;28;19971;-68
2022/09/17 03:13:24;;;;;;;;;;;;;;;12.63;42.96;100887.44;5058106;28;20240;-68
2022/09/17 03:15:51;;;;;;;;;;;;;;;12.63;42.81;100892.06;5066315;28;20373;-67
2022/09/17 03:18:19;;;;;;;;;;;;;;;12.63;42.71;100889.31;5063442;28;19928;-67
2022/09/17 03:23:36;;;;;;;;;;;;;;;12.60;42.63;100884.97;5016714;28;19922;-82
2022/09/17 03:26:04;;;;;;;;;;;;;;;12.59;43.03;100894.22;4995898;28;19921;-84
2022/09/17 03:28:32;;;;;;;;;;;;;;;12.59;42.91;100885.13;4999655;28;19925;-80
2022/09/17 03:31:00;;;;;;;;;;;;;;;12.58;43.17;100887.00;4999096;28;19959;-81
2022/09/17 03:33:28;;;;;;;;;;;;;;;12.56;42.98;100886.28;4996420;28;20011;-81
2022/09/17 03:35:55;;;;;;;;;;;;;;;12.57;42.76;100887.16;5016495;28;19952;-82
2022/09/17 03:38:23;;;;;;;;;;;;;;;12.56;42.97;100883.53;4999462;28;19981;-80
2022/09/17 03:40:59;;;;;;;;;;;;;;;12.56;42.79;100885.41;4996215;28;19922;-81
2022/09/17 03:43:27;;;;;;;;;;;;;;;12.56;42.90;100888.16;5001469;28;19922;-80
2022/09/17 03:45:55;;;;;;;;;;;;;;;12.56;42.82;100893.63;5012149;28;19922;-81
2022/09/17 03:48:23;;;;;;;;;;;;;;;12.55;42.95;100887.28;5014009;28;19992;-82
2022/09/17 03:50:50;;;;;;;;;;;;;;;12.54;42.87;100891.06;4993653;28;20277;-80
2022/09/17 03:53:18;;;;;;;;;;;;;;;12.55;42.83;100892.78;5011321;28;20592;-80
2022/09/17 03:55:46;;;;;;;;;;;;;;;12.55;42.91;100891.91;5011554;28;19953;-80
2022/09/17 03:58:15;;;;;;;;;;;;;;;12.55;43.04;100894.66;5025704;28;19929;-80
2022/09/17 04:00:43;;;;;;;;;;;;;;;12.56;43.13;100896.38;5034473;28;19996;-81
2022/09/17 04:03:12;;;;;;;;;;;;;;;12.55;43.24;100892.78;5008448;28;19937;-81
2022/09/17 04:05:39;;;;;;;;;;;;;;;12.54;43.44;100891.06;5013451;28;19926;-81
2022/09/17 04:08:07;;;;;;;;;;;;;;;12.55;43.32;100906.50;5015673;28;19928;-80
2022/09/17 04:10:35;;;;;;;;;;;;;;;12.55;42.91;100897.41;5010666;28;19921;-81
2022/09/17 04:13:03;;;;;;;;;;;;;;;12.54;43.23;100892.94;5034444;28;19936;-81
2022/09/17 04:15:31;;;;;;;;;;;;;;;12.53;43.18;100899.44;5032347;28;19944;-81
2022/09/17 04:17:59;;;;;;;;;;;;;;;12.53;43.10;100905.81;5011478;28;19921;-82
2022/09/17 04:20:27;;;;;;;;;;;;;;;12.52;43.24;100901.31;5031825;28;19929;-80
2022/09/17 04:22:58;;;;;;;;;;;;;;;12.50;43.34;100900.59;5018422;28;19953;-82
2022/09/17 04:25:25;;;;;;;;;;;;;;;12.50;43.14;100912.44;5013228;28;19993;-81
2022/09/17 04:27:53;;;;;;;;;;;;;;;12.49;43.00;100913.44;5015516;28;19921;-82
2022/09/17 04:30:21;;;;;;;;;;;;;;;12.48;43.30;100908.97;5029535;28;20368;-81
2022/09/17 04:32:52;;;;;;;;;;;;;;;12.49;43.10;100915.31;5019703;28;19921;-80
2022/09/17 04:35:20;;;;;;;;;;;;;;;12.48;43.02;100911.72;5035709;28;19991;-81
2022/09/17 04:37:53;;;;;;;;;;;;;;;12.48;43.22;100916.34;5035070;28;19921;-82
2022/09/17 04:40:22;;;;;;;;;;;;;;;12.48;43.12;100910.84;5032718;28;19922;-83
2022/09/17 04:42:52;;;;;;;;;;;;;;;12.46;42.89;100924.72;5002174;28;19960;-81
2022/09/17 04:45:20;;;;;;;;;;;;;;;12.47;43.27;100925.59;5010362;28;19925;-81
2022/09/17 04:47:49;;;;;;;;;;;;;;;12.46;43.01;100921.97;5012928;28;19932;-82
2022/09/17 04:50:18;;;;;;;;;;;;;;;12.45;43.02;100920.25;5038963;28;20354;-81
2022/09/17 04:52:47;;;;;;;;;;;;;;;12.45;43.14;100922.13;5019123;28;19922;-81
2022/09/17 04:55:15;;;;;;;;;;;;;;;12.44;43.25;100929.50;5038560;28;19928;-81
2022/09/17 04:57:46;;;;;;;;;;;;;;;12.44;42.92;100918.53;5021775;28;19928;-82
2022/09/17 05:00:17;;;;;;;;;;;;;;;12.43;43.21;100927.75;5036993;28;19925;-82
2022/09/17 05:02:49;;;;;;;;;;;;;;;12.42;42.91;100926.03;5015985;28;19929;-81
2022/09/17 05:05:19;;;;;;;;;;;;;;;12.42;42.90;100925.16;5021168;28;19981;-82
2022/09/17 05:07:47;;;;;;;;;;;;;;;12.40;43.07;100925.28;5016142;28;19926;-82
2022/09/17 05:10:16;;;;;;;;;;;;;;;12.39;43.05;100929.06;5017317;28;19989;-80
2022/09/17 05:12:47;;;;;;;;;;;;;;;12.39;42.93;100931.78;5017104;28;19922;-82
2022/09/17 05:15:17;;;;;;;;;;;;;;;12.37;43.15;100932.97;5033755;28;19936;-81
2022/09/17 05:17:49;;;;;;;;;;;;;;;12.35;43.15;100938.59;5033235;28;19921;-80
2022/09/17 05:20:17;;;;;;;;;;;;;;;12.34;43.13;100939.59;5023739;28;19925;-81
2022/09/17 05:22:48;;;;;;;;;;;;;;;12.34;43.21;100933.25;5020061;28;19921;-82
2022/09/17 05:25:16;;;;;;;;;;;;;;;12.32;43.16;100936.13;5018975;28;20088;-82
2022/09/17 05:27:45;;;;;;;;;;;;;;;12.30;43.00;100940.88;5015337;28;19921;-81
2022/09/17 05:30:14;;;;;;;;;;;;;;;12.30;43.16;100932.66;5020796;28;19925;-82
2022/09/17 05:32:42;;;;;;;;;;;;;;;12.29;43.07;100935.56;5037858;28;19928;-81
2022/09/17 05:35:14;;;;;;;;;;;;;;;12.28;43.19;100944.81;5023028;28;20017;-80
2022/09/17 05:37:42;;;;;;;;;;;;;;;12.27;43.05;100943.06;5016987;28;19952;-80
2022/09/17 05:40:17;;;;;;;;;;;;;;;12.26;43.15;100944.06;5018081;28;19921;-81
2022/09/17 05:42:47;;;;;;;;;;;;;;;12.24;43.62;100955.19;5023133;28;19980;-80
2022/09/17 05:45:15;;;;;;;;;;;;;;;12.24;43.25;100959.81;5026044;28;19922;-81
2022/09/17 05:47:43;;;;;;;;;;;;;;;12.24;43.09;100965.28;5024476;28;19929;-80
2022/09/17 05:50:18;;;;;;;;;;;;;;;12.23;43.24;100961.69;5026980;28;19956;-80
2022/09/17 05:52:48;;;;;;;;;;;;;;;12.23;43.32;100969.91;5014833;28;19928;-83
2022/09/17 05:55:21;;;;;;;;;;;;;;;12.23;43.55;100958.94;5036111;28;19921;-84
2022/09/17 05:57:52;;;;;;;;;;;;;;;12.25;43.43;100967.03;5016946;28;19921;-84
2022/09/17 06:00:28;;;;;;;;;;;;;;;12.26;43.25;100974.25;5018761;28;19921;-82
2022/09/17 06:02:57;;;;;;;;;;;;;;;12.26;43.52;100983.38;5031196;28;19926;-80
2022/09/17 06:05:26;;;;;;;;;;;;;;;12.29;43.33;100985.84;5012876;28;19933;-80
2022/09/17 06:07:54;;;;;;;;;;;;;;;12.29;43.73;100976.72;4999113;28;20295;-81
2022/09/17 06:10:23;;;;;;;;;;;;;;;12.32;43.37;100984.66;5007485;28;20300;-80
2022/09/17 06:13:17;;;;;;;;;;;;;;;12.33;43.87;100986.41;5022395;28;19928;-81
2022/09/17 06:16:20;;;;;;;;;;;;;;;12.34;44.02;100983.50;5012432;28;20016;-81
2022/09/17 06:19:13;;;;;;;;;;;;;;;12.34;43.62;100983.50;5014458;28;19997;-81
2022/09/17 06:37:38;;;;;;;;;;;;;;;12.36;44.18;101002.59;4998226;28;20032;-82
2022/09/17 06:44:21;;;;;;;;;;;;;;;12.36;44.20;101005.34;4988585;28;19922;-81
2022/09/17 06:46:59;;;;;;;;;;;;;;;12.36;43.92;101003.47;5015715;28;19926;-80
2022/09/17 06:49:36;;;;;;;;;;;;;;;12.36;43.54;101008.94;5023435;28;19926;-80
2022/09/17 06:52:07;;;;;;;;;;;;;;;12.37;43.71;101004.34;5019768;28;19921;-80
2022/09/17 06:54:51;;;;;;;;;;;;;;;12.37;43.86;101007.06;5008158;28;19964;-80
2022/09/17 06:57:24;;;;;;;;;;;;;;;12.37;44.20;101004.34;5034761;28;19921;-80
2022/09/17 07:00:04;;;;;;;;;;;;;;;12.40;44.64;101010.38;5033063;28;19921;-81
2022/09/17 07:02:32;;;;;;;;;;;;;;;12.45;44.48;101012.72;5061957;22;20297;-68
2022/09/17 07:05:03;;;;;;;;;;;;;;;12.49;44.81;101012.28;5050618;28;20425;-69
2022/09/17 07:07:30;;;;;;;;;;;;;;;12.56;44.40;101015.31;5049073;28;19921;-68
2022/09/17 07:09:59;;;;;;;;;;;;;;;12.63;44.50;101010.13;5050412;28;19920;-68
2022/09/17 07:12:27;;;;;;;;;;;;;;;12.69;44.46;101023.31;5043425;28;19928;-68
2022/09/17 07:14:54;;;;;;;;;;;;;;;12.75;44.86;101015.34;5041768;28;19975;-69
2022/09/17 07:17:22;;;;;;;;;;;;;;;12.84;44.64;101017.25;5049081;28;20435;-68
2022/09/17 07:19:49;;;;;;;;;;;;;;;12.94;44.97;101022.72;5048696;28;19920;-68
2022/09/17 07:22:18;;;;;;;;;;;;;;;13.08;45.19;101014.03;5048710;28;19978;-69
2022/09/17 07:24:45;;;;;;;;;;;;;;;13.24;45.60;101008.78;5049311;28;19928;-69
2022/09/17 07:27:15;;;;;;;;;;;;;;;13.40;45.09;101004.56;5029590;28;19967;-69
2022/09/17 07:29:42;;;;;;;;;;;;;;;13.56;45.56;101002.94;5048403;28;20019;-68
2022/09/17 07:32:10;;;;;;;;;;;;;;;13.74;45.09;101011.25;5040363;28;20290;-68
2022/09/17 07:34:38;;;;;;;;;;;;;;;13.92;45.24;101003.94;5027538;28;19982;-69
2022/09/17 07:37:09;;;;;;;;;;;;;;;14.11;45.69;101008.47;5027640;28;19935;-69
2022/09/17 07:39:36;;;;;;;;;;;;;;;14.33;45.36;101005.28;5027508;28;20449;-69
2022/09/17 07:42:04;;;;;;;;;;;;;;;14.57;45.26;101012.09;5029977;28;19921;-68
2022/09/17 07:44:35;;;;;;;;;;;;;;;14.81;45.20;101004.06;5029330;28;19952;-68
2022/09/17 07:47:03;;;;;;;;;;;;;;;15.06;45.80;101008.78;5028905;28;19975;-69
2022/09/17 07:49:31;;;;;;;;;;;;;;;15.32;45.63;101000.53;5029139;28;19928;-69
2022/09/17 07:52:03;;;;;;;;;;;;;;;15.56;44.71;101008.13;5027570;28;19925;-68
2022/09/17 07:54:32;;;;;;;;;;;;;;;15.83;45.22;101012.59;5017655;28;20408;-68
2022/09/17 07:56:59;;;;;;;;;;;;;;;16.06;44.64;101013.72;5028077;28;19967;-68
2022/09/17 07:59:27;;;;;;;;;;;;;;;16.29;44.82;101022.28;5025433;28;19928;-68
2022/09/17 08:01:56;;;;;;;;;;;;;;;16.48;44.29;101010.97;5026461;28;19979;-68
2022/09/17 08:04:24;;;;;;;;;;;;;;;16.67;44.01;101014.41;5028427;28;20370;-68
2022/09/17 08:06:51;;;;;;;;;;;;;;;16.82;43.78;101013.59;5028209;28;19929;-59
2022/09/17 08:09:19;;;;;;;;;;;;;;;16.95;43.02;100999.25;5027733;28;19928;-61
2022/09/17 08:11:47;;;;;;;;;;;;;;;17.08;42.22;101005.16;5016551;28;20738;-61
2022/09/17 08:14:23;;;;;;;;;;;;;;;17.17;42.41;101009.66;5021578;28;19929;-60
2022/09/17 08:16:57;;;;;;;;;;;;;;;17.23;42.18;101011.75;5022842;28;19924;-60
2022/09/17 08:19:25;;;;;;;;;;;;;;;17.29;41.74;101018.47;5039229;28;20256;-69
2022/09/17 08:21:53;;;;;;;;;;;;;;;17.31;41.85;101006.19;5050698;28;19921;-70
2022/09/17 08:24:21;;;;;;;;;;;;;;;17.32;41.39;101016.19;5025008;28;20374;-70
2022/09/17 08:26:48;;;;;;;;;;;;;;;17.32;41.68;101010.66;5021383;28;20586;-70
2022/09/17 08:29:16;;;;;;;;;;;;;;;17.30;40.69;101003.59;5021929;28;19979;-70
2022/09/17 08:31:43;;;;;;;;;;;;;;;17.27;41.04;101001.16;5023934;28;20306;-70
2022/09/17 08:34:13;;;;;;;;;;;;;;;17.25;40.98;101008.78;5022752;28;20455;-70
2022/09/17 08:36:41;;;;;;;;;;;;;;;17.23;40.42;101014.50;5023092;28;19921;-69
2022/09/17 08:39:10;;;;;;;;;;;;;;;17.20;40.50;101020.38;5044330;28;19927;-70
2022/09/17 08:41:46;;;;;;;;;;;;;;;17.19;40.64;101020.53;5045454;28;20328;-69
2022/09/17 08:44:18;;;;;;;;;;;;;;;17.19;40.67;101028.84;5046165;28;20374;-70
2022/09/17 08:46:47;;;;;;;;;;;;;;;17.18;40.16;101021.56;5039661;28;20384;-68
2022/09/17 08:49:22;;;;;;;;;;;;;;;17.17;40.37;101015.19;5027134;28;19921;-68
2022/09/17 08:52:02;;;;;;;;;;;;;;;17.17;40.22;101019.84;5021608;28;19921;-68
2022/09/17 08:54:35;;;;;;;;;;;;;;;17.17;40.18;101015.19;5028722;28;20262;-68
2022/09/17 08:57:11;;;;;;;;;;;;;;;17.18;40.47;101014.13;5024519;28;19925;-69
2022/09/17 08:59:44;;;;;;;;;;;;;;;17.17;40.07;101012.41;5025830;28;19925;-69
2022/09/17 09:02:20;;;;;;;;;;;;;;;17.18;39.44;101013.28;5026703;28;20245;-66
2022/09/17 09:05:01;;;;;;;;;;;;;;;17.17;39.90;101017.94;5022755;28;19925;-67
2022/09/17 09:07:31;;;;;;;;;;;;;;;17.19;39.54;101021.41;5022584;28;19929;-69
2022/09/17 09:10:05;;;;;;;;;;;;;;;17.21;39.64;101027.63;5028141;28;20408;-69
2022/09/17 09:12:34;;;;;;;;;;;;;;;17.21;39.44;101021.22;5031844;28;19921;-67
2022/09/17 09:15:04;;;;;;;;;;;;;;;17.20;40.06;101014.84;5042937;28;20020;-68
2022/09/17 09:17:35;;;;;;;;;;;;;;;17.21;39.99;101013.81;5033849;28;19956;-68
2022/09/17 09:20:05;;;;;;;;;;;;;;;17.22;39.83;101021.06;5025776;28;19921;-69
2022/09/17 09:22:38;;;;;;;;;;;;;;;17.24;39.61;101018.09;5028697;28;20289;-69
2022/09/17 09:25:13;;;;;;;;;;;;;;;17.26;39.92;101024.34;5041576;28;20375;-68
2022/09/17 09:27:48;;;;;;;;;;;;;;;17.29;39.70;101015.69;5043269;28;19928;-68
2022/09/17 09:30:22;;;;;;;;;;;;;;;17.28;39.47;101020.38;5020673;28;20024;-68
2022/09/17 09:32:54;;;;;;;;;;;;;;;17.28;39.33;101014.84;5027696;28;19921;-68
2022/09/17 09:35:24;;;;;;;;;;;;;;;17.29;39.18;101012.94;5027136;28;20007;-68
2022/09/17 09:37:55;;;;;;;;;;;;;;;17.28;39.48;101008.44;5028561;28;19921;-68
2022/09/17 09:40:30;;;;;;;;;;;;;;;17.25;39.01;101017.94;5029022;28;19976;-60
2022/09/17 09:43:00;;;;;;;;;;;;;;;17.26;38.95;101010.50;5028684;28;19925;-59
2022/09/17 09:45:37;;;;;;;;;;;;;;;17.26;39.46;101007.75;5026724;28;19925;-60
2022/09/17 09:48:10;;;;;;;;;;;;;;;17.29;39.76;101019.31;5028467;28;19956;-60
2022/09/17 09:50:45;;;;;;;;;;;;;;;17.32;39.37;101009.78;5028414;28;19928;-61
2022/09/17 09:53:40;;;;;;;;;;;;;;;17.37;39.55;101010.16;5041806;28;19927;-62
2022/09/17 09:56:18;;;;;;;;;;;;;;;17.42;39.38;101021.53;5026631;28;19920;-61
2022/09/17 09:58:45;;;;;;;;;;;;;;;17.46;39.23;101019.31;5028949;28;20298;-59
2022/09/17 10:01:14;;;;;;;;;;;;;;;17.50;38.99;101012.38;5028634;28;19921;-58
2022/09/17 10:03:44;;;;;;;;;;;;;;;17.51;39.12;101011.34;5028406;28;19943;-59
2022/09/17 10:06:14;;;;;;;;;;;;;;;17.52;38.51;101013.06;5028091;28;19983;-60
2022/09/17 10:08:45;;;;;;;;;;;;;;;17.52;38.21;100999.22;5027756;28;19921;-58
2022/09/17 10:11:20;;;;;;;;;;;;;;;17.51;37.82;101006.66;5027444;28;19983;-57
2022/09/17 10:13:47;;;;;;;;;;;;;;;17.50;38.02;100995.75;5028681;28;19925;-57
2022/09/17 10:16:16;;;;;;;;;;;;;;;17.48;38.38;101006.16;5028686;28;19971;-59
2022/09/17 10:18:44;;;;;;;;;;;;;;;17.46;38.34;101009.09;5028341;28;19921;-57
2022/09/17 10:21:21;;;;;;;;;;;;;;;17.43;37.97;100998.38;5026083;28;19921;-58
2022/09/17 10:23:49;;;;;;;;;;;;;;;17.41;38.43;100992.16;5024275;28;20385;-67
2022/09/17 10:26:22;;;;;;;;;;;;;;;17.38;38.27;100998.06;5027918;28;19921;-66
2022/09/17 10:28:51;;;;;;;;;;;;;;;17.34;37.49;100996.66;5025418;28;19959;-67
2022/09/17 10:31:19;;;;;;;;;;;;;;;17.30;37.71;100985.09;5025886;28;19967;-66
2022/09/17 10:33:55;;;;;;;;;;;;;;;17.27;38.18;100987.34;5026953;28;19925;-67
2022/09/17 10:36:39;;;;;;;;;;;;;;;17.25;38.31;100968.16;5025990;28;20476;-67
2022/09/17 10:39:25;;;;;;;;;;;;;;;17.22;38.14;100987.88;5027026;28;19927;-68
2022/09/17 10:41:54;;;;;;;;;;;;;;;17.17;37.93;100993.06;5027931;28;19921;-68
2022/09/17 10:44:22;;;;;;;;;;;;;;;17.13;37.88;100983.38;5029290;28;20259;-68
2022/09/17 10:46:51;;;;;;;;;;;;;;;17.08;37.90;100987.69;5025533;28;19925;-67
2022/09/17 10:49:25;;;;;;;;;;;;;;;17.00;37.91;100981.13;5027279;28;19925;-67
2022/09/17 10:52:03;;;;;;;;;;;;;;;16.95;37.82;100980.78;5041858;28;19921;-69
2022/09/17 10:54:48;;;;;;;;;;;;;;;16.91;37.86;100970.22;5027866;28;19925;-70
2022/09/17 10:57:20;;;;;;;;;;;;;;;16.88;37.94;100970.56;5025234;28;19925;-69
2022/09/17 11:00:03;;;;;;;;;;;;;;;16.88;38.28;100967.81;5022762;28;19921;-68
2022/09/17 11:02:42;;;;;;;;;;;;;;;16.88;38.35;100963.16;5039448;28;20015;-68
2022/09/17 11:05:23;;;;;;;;;;;;;;;16.90;38.17;100955.56;5029402;28;20024;-68
2022/09/17 11:08:00;;;;;;;;;;;;;;;16.93;38.42;100968.16;5027310;28;19929;-68
2022/09/17 11:10:31;;;;;;;;;;;;;;;16.97;38.49;100953.00;5028282;28;19961;-69
2022/09/17 11:13:06;;;;;;;;;;;;;;;17.00;38.68;100959.00;5029353;28;20149;-69
2022/09/17 11:15:40;;;;;;;;;;;;;;;17.06;38.22;100959.38;5030946;28;19921;-68
2022/09/17 11:18:27;;;;;;;;;;;;;;;17.11;38.38;100956.94;5027209;28;20336;-68
2022/09/17 11:21:03;;;;;;;;;;;;;;;17.15;37.42;100969.41;5049876;28;19921;-68
2022/09/17 11:23:42;;;;;;;;;;;;;;;17.18;38.08;100969.88;5030243;28;20292;-68
2022/09/17 11:26:13;;;;;;;;;;;;;;;17.21;37.66;100964.03;5029024;28;19921;-68
2022/09/17 11:28:47;;;;;;;;;;;;;;;17.22;37.66;100965.75;5041156;28;19921;-68
2022/09/17 11:31:21;;;;;;;;;;;;;;;17.22;37.59;100974.06;5027922;28;19921;-68
2022/09/17 11:34:01;;;;;;;;;;;;;;;17.20;36.96;100976.13;5026518;28;20369;-68
2022/09/17 11:36:31;;;;;;;;;;;;;;;17.19;36.93;100979.06;5028366;28;19925;-68
2022/09/17 11:39:06;;;;;;;;;;;;;;;17.16;37.08;100982.16;5028173;28;20165;-68
2022/09/17 11:41:37;;;;;;;;;;;;;;;17.11;36.97;100991.00;5029501;28;19932;-67
2022/09/17 11:44:08;;;;;;;;;;;;;;;17.05;36.73;100990.81;5028426;28;19952;-68
2022/09/17 11:46:40;;;;;;;;;;;;;;;16.96;36.38;100992.69;5028336;28;20415;-68
2022/09/17 11:49:12;;;;;;;;;;;;;;;16.89;36.57;100984.22;5025648;28;19921;-67
2022/09/17 11:51:43;;;;;;;;;;;;;;;16.81;36.21;100987.00;5024741;28;19921;-67
2022/09/17 11:54:20;;;;;;;;;;;;;;;16.77;36.71;100990.25;5027538;28;20016;-67
2022/09/17 11:56:50;;;;;;;;;;;;;;;16.70;36.51;100987.31;5027117;28;19920;-67
2022/09/17 11:59:20;;;;;;;;;;;;;;;16.67;36.79;100990.41;5026697;28;19967;-68
2022/09/17 12:01:52;;;;;;;;;;;;;;;16.66;37.04;100991.44;5027339;28;20003;-67
2022/09/17 12:04:29;;;;;;;;;;;;;;;16.66;37.40;100990.63;5026628;28;19921;-67
2022/09/17 12:07:00;;;;;;;;;;;;;;;16.68;37.77;100994.03;5027513;28;19948;-67
2022/09/17 12:09:31;;;;;;;;;;;;;;;16.71;37.31;100982.66;5027629;28;19959;-67
2022/09/17 12:12:01;;;;;;;;;;;;;;;16.75;37.77;100984.91;5039888;28;20272;-67
2022/09/17 12:14:30;;;;;;;;;;;;;;;16.80;37.76;100988.03;5008069;28;20370;-68
2022/09/17 12:16:59;;;;;;;;;;;;;;;16.83;37.10;100982.13;5011052;28;19922;-68
2022/09/17 12:19:31;;;;;;;;;;;;;;;16.89;37.71;100973.19;5025006;28;20359;-67
2022/09/17 12:22:01;;;;;;;;;;;;;;;16.92;37.53;100967.28;5027457;28;19936;-67
2022/09/17 12:24:31;;;;;;;;;;;;;;;16.96;36.95;100979.72;5022251;28;19925;-67
2022/09/17 12:27:06;;;;;;;;;;;;;;;17.01;37.49;100976.47;5026707;28;19928;-67
2022/09/17 12:29:43;;;;;;;;;;;;;;;17.05;36.98;100977.00;5026463;28;20037;-67
2022/09/17 12:32:24;;;;;;;;;;;;;;;17.09;37.22;100981.13;5022755;28;19936;-67
2022/09/17 12:34:57;;;;;;;;;;;;;;;17.11;36.87;101004.81;5027572;28;20290;-67
2022/09/17 12:37:27;;;;;;;;;;;;;;;17.14;37.39;101047.88;5022823;28;19928;-67
2022/09/17 12:40:22;;;;;;;;;;;;;;;17.15;37.23;101046.84;5019102;28;19929;-66
2022/09/17 12:43:04;;;;;;;;;;;;;;;17.12;37.02;101056.31;5013252;28;19928;-67
2022/09/17 12:45:36;;;;;;;;;;;;;;;17.05;37.23;101055.28;5027148;28;20475;-69
2022/09/17 12:48:18;;;;;;;;;;;;;;;16.96;37.07;101017.56;5027345;28;19944;-68
2022/09/17 12:50:51;;;;;;;;;;;;;;;16.86;37.18;101005.81;5042573;28;20031;-67
2022/09/17 12:53:23;;;;;;;;;;;;;;;16.75;36.75;100997.84;5025761;28;20302;-67
2022/09/17 12:55:58;;;;;;;;;;;;;;;16.63;36.92;101000.97;5026042;28;19921;-67
2022/09/17 12:58:34;;;;;;;;;;;;;;;16.53;37.03;100997.50;5027833;28;20004;-67
2022/09/17 13:01:04;;;;;;;;;;;;;;;16.44;37.70;100986.59;5029999;28;20397;-67
2022/09/17 13:03:34;;;;;;;;;;;;;;;16.35;38.08;100982.06;5030182;28;19921;-67
2022/09/17 13:06:20;;;;;;;;;;;;;;;16.28;38.06;100976.38;5018280;28;19925;-67
2022/09/17 13:09:12;;;;;;;;;;;;;;;16.21;38.21;100975.31;5030145;28;20412;-67
2022/09/17 13:11:58;;;;;;;;;;;;;;;16.13;38.14;100980.78;5030756;28;19927;-67
2022/09/17 13:14:33;;;;;;;;;;;;;;;16.06;37.98;100976.97;5029756;28;19928;-66
2022/09/17 13:17:05;;;;;;;;;;;;;;;16.01;38.21;100971.06;5030379;28;19921;-67
2022/09/17 13:19:35;;;;;;;;;;;;;;;15.97;38.21;100966.94;5046177;28;19943;-67
2022/09/17 13:22:05;;;;;;;;;;;;;;;15.94;38.08;100970.88;5043659;28;19921;-68